createdAt,value
2017-08-01T00:00:28.502Z,23.83
2017-08-01T00:02:56.863Z,23.75
2017-08-01T00:05:25.198Z,23.83
2017-08-01T00:07:53.963Z,23.83
2017-08-01T00:10:22.313Z,23.88
2017-08-01T00:12:51.437Z,23.62
2017-08-01T00:15:20.376Z,23.71
2017-08-01T00:17:48.701Z,23.84
2017-08-01T00:20:17.039Z,23.80
2017-08-01T00:22:45.701Z,23.76
2017-08-01T00:25:14.038Z,23.81
2017-08-01T00:27:42.377Z,23.95
2017-08-01T00:30:11.026Z,24.08
2017-08-01T00:32:39.368Z,23.89
2017-08-01T00:35:07.729Z,23.92
2017-08-01T00:37:37.396Z,23.73
2017-08-01T00:40:05.747Z,23.83
2017-08-01T00:42:34.086Z,23.65
2017-08-01T00:45:02.839Z,23.72
2017-08-01T00:47:31.170Z,23.61
2017-08-01T00:49:59.498Z,23.62
2017-08-01T00:52:28.142Z,23.64
2017-08-01T00:54:57.257Z,23.65
2017-08-01T00:57:25.568Z,23.52
2017-08-01T00:59:54.529Z,23.40
2017-08-01T01:02:22.898Z,23.42
2017-08-01T01:04:51.227Z,23.32
2017-08-01T01:07:19.871Z,23.32
2017-08-01T01:09:48.215Z,23.46
2017-08-01T01:12:16.558Z,23.44
2017-08-01T01:14:45.416Z,23.43
2017-08-01T01:17:13.804Z,23.46
2017-08-01T01:19:42.198Z,23.37
2017-08-01T01:22:10.929Z,23.41
2017-08-01T01:24:39.328Z,23.52
2017-08-01T01:27:07.671Z,23.60
2017-08-01T01:29:36.919Z,23.58
2017-08-01T01:32:05.267Z,23.45
2017-08-01T01:34:33.602Z,23.57
2017-08-01T01:37:02.255Z,23.55
2017-08-01T01:39:30.611Z,23.42
2017-08-01T01:41:58.970Z,23.45
2017-08-01T01:44:28.356Z,23.54
2017-08-01T01:46:56.713Z,23.52
2017-08-01T01:49:25.069Z,23.54
2017-08-01T01:51:54.704Z,23.46
2017-08-01T01:54:23.064Z,23.34
2017-08-01T01:56:51.402Z,23.25
2017-08-01T01:59:20.339Z,23.20
2017-08-01T02:01:48.695Z,23.30
2017-08-01T02:04:17.803Z,23.27
2017-08-01T02:06:47.427Z,23.35
2017-08-01T02:09:15.781Z,23.10
2017-08-01T02:11:44.905Z,23.13
2017-08-01T02:14:13.532Z,23.12
2017-08-01T02:16:41.881Z,23.05
2017-08-01T02:19:10.223Z,23.09
2017-08-01T02:21:38.852Z,23.09
2017-08-01T02:24:07.208Z,23.13
2017-08-01T02:26:35.586Z,23.01
2017-08-01T02:29:04.579Z,22.72
2017-08-01T02:31:33.087Z,22.95
2017-08-01T02:34:01.419Z,23.11
2017-08-01T02:36:30.231Z,23.28
2017-08-01T02:38:58.583Z,23.10
2017-08-01T02:41:27.744Z,23.38
2017-08-01T02:43:56.491Z,23.47
2017-08-01T02:46:24.843Z,23.40
2017-08-01T02:48:53.959Z,23.34
2017-08-01T02:51:23.538Z,23.42
2017-08-01T02:53:51.896Z,23.56
2017-08-01T02:56:20.239Z,23.57
2017-08-01T02:58:49.025Z,23.70
2017-08-01T03:01:17.408Z,23.55
2017-08-01T03:03:45.736Z,23.59
2017-08-01T03:06:14.467Z,23.39
2017-08-01T03:08:42.801Z,23.60
2017-08-01T03:11:11.152Z,23.61
2017-08-01T03:13:40.106Z,23.63
2017-08-01T03:16:08.449Z,23.45
2017-08-01T03:18:36.808Z,23.39
2017-08-01T03:21:05.562Z,23.39
2017-08-01T03:23:33.913Z,23.38
2017-08-01T03:26:03.023Z,23.39
2017-08-01T03:28:31.848Z,23.34
2017-08-01T03:31:00.224Z,23.32
2017-08-01T03:33:28.564Z,23.03
2017-08-01T03:35:57.464Z,23.00
2017-08-01T03:38:25.834Z,23.23
2017-08-01T03:40:54.961Z,23.15
2017-08-01T03:43:23.608Z,23.34
2017-08-01T03:45:51.929Z,23.38
2017-08-01T03:48:20.351Z,23.25
2017-08-01T03:50:49.205Z,23.17
2017-08-01T03:53:17.635Z,23.01
2017-08-01T03:55:46.000Z,22.76
2017-08-01T03:58:14.803Z,22.64
2017-08-01T04:00:43.186Z,22.65
2017-08-01T04:03:11.551Z,22.55
2017-08-01T04:05:40.451Z,22.52
2017-08-01T04:08:08.831Z,22.49
2017-08-01T04:10:37.314Z,22.29
2017-08-01T04:13:06.146Z,22.67
2017-08-01T04:15:34.554Z,22.61
2017-08-01T04:18:02.970Z,22.63
2017-08-01T04:20:32.673Z,22.69
2017-08-01T04:23:01.053Z,22.84
2017-08-01T04:25:29.441Z,22.91
2017-08-01T04:27:59.134Z,23.05
2017-08-01T04:30:27.529Z,23.10
2017-08-01T04:32:56.002Z,23.04
2017-08-01T04:35:24.788Z,22.90
2017-08-01T04:37:53.325Z,23.00
2017-08-01T04:40:21.660Z,23.14
2017-08-01T04:42:50.490Z,23.14
2017-08-01T04:45:18.925Z,23.16
2017-08-01T04:47:47.326Z,23.26
2017-08-01T04:50:16.087Z,23.33
2017-08-01T04:52:44.551Z,23.37
2017-08-01T04:55:12.945Z,23.19
2017-08-01T04:57:41.946Z,23.24
2017-08-01T05:00:10.384Z,23.32
2017-08-01T05:02:38.807Z,23.49
2017-08-01T05:05:07.646Z,23.58
2017-08-01T05:07:36.048Z,23.70
2017-08-01T05:10:04.409Z,23.60
2017-08-01T05:12:33.367Z,23.64
2017-08-01T05:15:01.808Z,23.70
2017-08-01T05:17:30.208Z,23.74
2017-08-01T05:19:59.101Z,23.70
2017-08-01T05:22:27.467Z,23.58
2017-08-01T05:24:55.805Z,23.58
2017-08-01T05:27:24.693Z,23.62
2017-08-01T05:29:53.044Z,23.57
2017-08-01T05:32:22.157Z,23.29
2017-08-01T05:34:50.942Z,23.30
2017-08-01T05:37:19.271Z,23.40
2017-08-01T05:39:47.594Z,23.34
2017-08-01T05:42:16.397Z,23.45
2017-08-01T05:44:44.722Z,23.53
2017-08-01T05:47:13.064Z,23.59
2017-08-01T05:49:42.043Z,23.64
2017-08-01T05:52:10.388Z,23.67
2017-08-01T05:54:38.744Z,23.73
2017-08-01T05:57:07.367Z,23.57
2017-08-01T05:59:36.478Z,23.61
2017-08-01T06:02:04.825Z,23.77
2017-08-01T06:04:33.748Z,23.84
2017-08-01T06:07:02.092Z,23.96
2017-08-01T06:09:30.448Z,23.97
2017-08-01T06:11:59.400Z,23.80
2017-08-01T06:14:27.738Z,23.95
2017-08-01T06:16:56.079Z,24.13
2017-08-01T06:19:24.745Z,24.44
2017-08-01T06:21:53.095Z,24.68
2017-08-01T06:24:21.491Z,24.69
2017-08-01T06:26:50.916Z,24.79
2017-08-01T06:29:19.264Z,25.09
2017-08-01T06:31:48.389Z,25.05
2017-08-01T06:34:17.197Z,24.95
2017-08-01T06:36:45.531Z,25.03
2017-08-01T06:39:13.891Z,25.06
2017-08-01T06:41:42.631Z,25.28
2017-08-01T06:44:10.979Z,25.29
2017-08-01T06:46:40.095Z,25.65
2017-08-01T06:49:08.853Z,25.86
2017-08-01T06:51:37.193Z,26.20
2017-08-01T06:54:05.553Z,26.60
2017-08-01T06:56:34.364Z,26.71
2017-08-01T06:59:02.739Z,26.49
2017-08-01T07:01:31.080Z,26.50
2017-08-01T07:03:59.966Z,26.53
2017-08-01T07:06:28.320Z,26.68
2017-08-01T07:08:56.691Z,26.99
2017-08-01T07:11:25.520Z,27.42
2017-08-01T07:13:54.632Z,27.47
2017-08-01T07:16:22.989Z,27.37
2017-08-01T07:18:52.106Z,27.27
2017-08-01T07:21:20.429Z,27.34
2017-08-01T07:23:48.789Z,27.36
2017-08-01T07:26:17.390Z,27.50
2017-08-01T07:28:45.727Z,27.43
2017-08-01T07:31:14.074Z,27.39
2017-08-01T07:33:42.722Z,27.79
2017-08-01T07:36:11.052Z,27.41
2017-08-01T07:38:39.432Z,27.32
2017-08-01T07:41:08.442Z,27.43
2017-08-01T07:43:36.806Z,27.41
2017-08-01T07:46:05.143Z,27.57
2017-08-01T07:48:33.899Z,27.88
2017-08-01T07:51:02.262Z,27.90
2017-08-01T07:53:30.608Z,28.21
2017-08-01T07:55:59.530Z,28.20
2017-08-01T07:58:27.858Z,27.96
2017-08-01T08:00:56.178Z,28.03
2017-08-01T08:03:24.967Z,27.95
2017-08-01T08:05:53.297Z,28.28
2017-08-01T08:08:21.620Z,28.39
2017-08-01T08:10:50.424Z,28.44
2017-08-01T08:13:18.773Z,28.51
2017-08-01T08:15:47.890Z,28.04
2017-08-01T08:18:16.673Z,27.86
2017-08-01T08:20:45.025Z,28.01
2017-08-01T08:23:13.379Z,28.10
2017-08-01T08:25:42.151Z,28.30
2017-08-01T08:28:10.511Z,28.54
2017-08-01T08:30:38.860Z,29.02
2017-08-01T08:33:07.826Z,28.57
2017-08-01T08:35:36.164Z,28.63
2017-08-01T08:38:04.500Z,29.00
2017-08-01T08:40:33.105Z,29.23
2017-08-01T08:43:02.236Z,29.72
2017-08-01T08:45:30.596Z,30.04
2017-08-01T08:47:59.717Z,30.11
2017-08-01T08:50:28.103Z,30.12
2017-08-01T08:52:56.499Z,30.42
2017-08-01T08:55:25.342Z,30.11
2017-08-01T08:57:53.690Z,30.37
2017-08-01T09:00:22.026Z,30.25
2017-08-01T09:02:50.639Z,29.80
2017-08-01T09:05:19.008Z,29.78
2017-08-01T09:07:47.358Z,29.76
2017-08-01T09:10:16.448Z,29.36
2017-08-01T09:12:44.779Z,29.75
2017-08-01T09:15:13.106Z,29.92
2017-08-01T09:17:41.756Z,29.85
2017-08-01T09:20:10.105Z,29.83
2017-08-01T09:22:38.437Z,30.10
2017-08-01T09:25:07.111Z,30.39
2017-08-01T09:27:35.460Z,30.15
2017-08-01T09:30:03.797Z,30.41
2017-08-01T09:32:32.824Z,30.07
2017-08-01T09:35:01.472Z,30.73
2017-08-01T09:37:29.942Z,31.09
2017-08-01T09:39:59.475Z,31.56
2017-08-01T09:42:27.820Z,31.45
2017-08-01T09:44:56.208Z,30.69
2017-08-01T09:47:24.846Z,30.49
2017-08-01T09:49:53.176Z,30.41
2017-08-01T09:52:21.502Z,30.73
2017-08-01T09:54:50.566Z,30.68
2017-08-01T09:57:18.973Z,30.62
2017-08-01T09:59:47.334Z,30.65
2017-08-01T10:02:15.930Z,30.44
2017-08-01T10:04:44.252Z,29.63
2017-08-01T10:07:12.597Z,29.67
2017-08-01T10:09:41.467Z,30.26
2017-08-01T10:12:09.809Z,29.59
2017-08-01T10:14:38.143Z,29.78
2017-08-01T10:17:06.997Z,30.09
2017-08-01T10:19:35.343Z,30.58
2017-08-01T10:22:03.691Z,30.53
2017-08-01T10:24:32.331Z,31.19
2017-08-01T10:27:01.564Z,31.35
2017-08-01T10:29:29.889Z,31.43
2017-08-01T10:31:58.778Z,32.17
2017-08-01T10:34:27.122Z,32.20
2017-08-01T10:36:55.840Z,31.84
2017-08-01T10:39:24.855Z,31.53
2017-08-01T10:41:53.208Z,31.50
2017-08-01T10:44:21.565Z,30.75
2017-08-01T10:46:50.235Z,30.83
2017-08-01T10:49:18.583Z,30.29
2017-08-01T10:51:46.934Z,30.10
2017-08-01T10:54:15.598Z,29.46
2017-08-01T10:56:43.925Z,28.85
2017-08-01T10:59:12.319Z,28.79
2017-08-01T11:01:41.160Z,28.76
2017-08-01T11:04:09.511Z,28.82
2017-08-01T11:06:37.938Z,28.72
2017-08-01T11:09:06.599Z,28.23
2017-08-01T11:11:34.969Z,28.54
2017-08-01T11:14:03.361Z,28.29
2017-08-01T11:16:32.238Z,28.34
2017-08-01T11:19:00.612Z,28.25
2017-08-01T11:21:29.047Z,27.82
2017-08-01T11:23:58.040Z,27.89
2017-08-01T11:26:26.394Z,27.85
2017-08-01T11:28:54.750Z,27.46
2017-08-01T11:31:23.606Z,27.54
2017-08-01T11:33:51.959Z,28.01
2017-08-01T11:36:20.289Z,28.48
2017-08-01T11:38:48.998Z,28.37
2017-08-01T11:41:17.396Z,28.41
2017-08-01T11:43:45.744Z,28.61
2017-08-01T11:46:14.767Z,28.26
2017-08-01T11:48:43.172Z,28.14
2017-08-01T11:51:11.608Z,28.29
2017-08-01T11:53:40.608Z,28.46
2017-08-01T11:56:09.796Z,28.05
2017-08-01T11:58:38.216Z,28.37
2017-08-01T12:01:07.243Z,28.32
2017-08-01T12:03:35.621Z,28.15
2017-08-01T12:06:04.114Z,27.92
2017-08-01T12:08:33.067Z,27.94
2017-08-01T12:11:01.457Z,27.64
2017-08-01T12:13:29.802Z,27.36
2017-08-01T12:15:58.478Z,27.20
2017-08-01T12:18:26.825Z,27.59
2017-08-01T12:20:55.226Z,27.76
2017-08-01T12:23:24.023Z,27.85
2017-08-01T12:25:52.422Z,28.07
2017-08-01T12:28:20.782Z,28.34
2017-08-01T12:30:50.382Z,28.73
2017-08-01T12:33:18.759Z,28.71
2017-08-01T12:35:47.132Z,28.28
2017-08-01T12:38:15.749Z,27.96
2017-08-01T12:40:44.886Z,28.22
2017-08-01T12:43:13.267Z,27.74
2017-08-01T12:45:41.987Z,27.74
2017-08-01T12:48:10.331Z,27.90
2017-08-01T12:50:38.674Z,27.80
2017-08-01T12:53:07.487Z,27.74
2017-08-01T12:55:35.830Z,28.11
2017-08-01T12:58:04.173Z,27.43
2017-08-01T13:00:32.821Z,27.51
2017-08-01T13:03:01.165Z,27.49
2017-08-01T13:05:29.535Z,27.83
2017-08-01T13:07:58.264Z,28.04
2017-08-01T13:10:26.602Z,28.25
2017-08-01T13:12:54.925Z,28.17
2017-08-01T13:15:24.122Z,27.93
2017-08-01T13:17:52.462Z,28.72
2017-08-01T13:20:20.831Z,28.75
2017-08-01T13:22:49.580Z,29.17
2017-08-01T13:25:17.946Z,29.23
2017-08-01T13:27:46.288Z,28.10
2017-08-01T13:30:15.145Z,28.54
2017-08-01T13:32:43.492Z,29.00
2017-08-01T13:35:11.842Z,29.53
2017-08-01T13:37:40.618Z,30.48
2017-08-01T13:40:08.973Z,30.21
2017-08-01T13:42:37.336Z,29.97
2017-08-01T13:45:06.142Z,29.65
2017-08-01T13:47:34.501Z,29.20
2017-08-01T13:50:02.837Z,29.72
2017-08-01T13:52:31.747Z,29.55
2017-08-01T13:55:00.095Z,28.97
2017-08-01T13:57:28.448Z,28.68
2017-08-01T13:59:57.658Z,28.66
2017-08-01T14:02:26.015Z,28.93
2017-08-01T14:04:54.353Z,28.85
2017-08-01T14:07:23.255Z,28.46
2017-08-01T14:09:51.592Z,28.52
2017-08-01T14:12:19.938Z,28.37
2017-08-01T14:14:48.704Z,28.12
2017-08-01T14:17:17.051Z,28.05
2017-08-01T14:19:45.410Z,28.30
2017-08-01T14:22:14.342Z,28.60
2017-08-01T14:24:42.685Z,28.47
2017-08-01T14:27:11.029Z,28.22
2017-08-01T14:29:39.687Z,28.41
2017-08-01T14:32:08.039Z,28.44
2017-08-01T14:34:36.395Z,28.35
2017-08-01T14:37:05.071Z,28.32
2017-08-01T14:39:33.443Z,28.24
2017-08-01T14:42:01.822Z,28.29
2017-08-01T14:44:30.554Z,28.24
2017-08-01T14:46:58.902Z,27.87
2017-08-01T14:49:27.289Z,27.41
2017-08-01T14:51:55.930Z,27.37
2017-08-01T14:54:24.315Z,27.14
2017-08-01T14:56:52.651Z,26.97
2017-08-01T14:59:21.370Z,26.82
2017-08-01T15:01:49.714Z,26.69
2017-08-01T15:04:18.073Z,26.56
2017-08-01T15:06:46.954Z,26.57
2017-08-01T15:09:15.300Z,26.60
2017-08-01T15:11:43.707Z,26.41
2017-08-01T15:14:12.470Z,26.37
2017-08-01T15:16:40.805Z,26.03
2017-08-01T15:19:09.149Z,25.67
2017-08-01T15:21:37.919Z,25.44
2017-08-01T15:24:06.304Z,24.94
2017-08-01T15:26:34.662Z,24.39
2017-08-01T15:29:03.394Z,24.32
2017-08-01T15:31:31.735Z,24.44
2017-08-01T15:34:00.194Z,24.57
2017-08-01T15:36:28.885Z,24.84
2017-08-01T15:38:58.010Z,25.05
2017-08-01T15:41:26.377Z,25.17
2017-08-01T15:43:55.064Z,25.29
2017-08-01T15:46:23.402Z,25.22
2017-08-01T15:48:51.763Z,25.16
2017-08-01T15:51:20.703Z,24.84
2017-08-01T15:53:49.049Z,25.00
2017-08-01T15:56:23.295Z,25.18
2017-08-01T15:58:51.709Z,25.43
2017-08-01T16:01:20.073Z,25.66
2017-08-01T16:03:48.918Z,25.30
2017-08-01T16:06:17.274Z,24.95
2017-08-01T16:08:45.645Z,25.08
2017-08-01T16:11:14.558Z,25.27
2017-08-01T16:13:42.929Z,25.32
2017-08-01T16:16:11.277Z,25.36
2017-08-01T16:18:40.304Z,25.29
2017-08-01T16:21:08.667Z,25.24
2017-08-01T16:23:37.012Z,25.49
2017-08-01T16:26:06.677Z,25.37
2017-08-01T16:28:35.006Z,25.30
2017-08-01T16:31:03.322Z,25.14
2017-08-01T16:33:32.116Z,25.15
2017-08-01T16:36:00.488Z,25.01
2017-08-01T16:38:28.858Z,25.15
2017-08-01T16:40:57.597Z,25.23
2017-08-01T16:43:26.705Z,25.30
2017-08-01T16:45:55.822Z,25.25
2017-08-01T16:48:24.588Z,25.07
2017-08-01T16:50:52.935Z,25.21
2017-08-01T16:53:21.283Z,25.56
2017-08-01T16:55:50.262Z,25.45
2017-08-01T16:58:18.597Z,25.21
2017-08-01T17:00:46.958Z,24.67
2017-08-01T17:03:15.702Z,24.73
2017-08-01T17:05:44.061Z,24.84
2017-08-01T17:08:13.174Z,25.01
2017-08-01T17:10:41.970Z,25.09
2017-08-01T17:13:10.305Z,25.32
2017-08-01T17:15:38.664Z,25.31
2017-08-01T17:18:07.476Z,25.26
2017-08-01T17:20:35.815Z,25.22
2017-08-01T17:23:04.171Z,25.21
2017-08-01T17:25:32.808Z,25.09
2017-08-01T17:28:01.167Z,25.23
2017-08-01T17:30:29.502Z,25.25
2017-08-01T17:32:58.949Z,25.31
2017-08-01T17:35:27.294Z,25.38
2017-08-01T17:37:55.655Z,25.21
2017-08-01T17:40:24.466Z,24.91
2017-08-01T17:42:52.819Z,24.32
2017-08-01T17:45:21.200Z,24.13
2017-08-01T17:49:09.904Z,24.68
2017-08-01T17:51:38.282Z,25.06
2017-08-01T17:54:06.640Z,25.40
2017-08-01T17:56:35.485Z,25.47
2017-08-01T17:59:03.834Z,25.41
2017-08-01T18:01:32.213Z,25.46
2017-08-01T18:04:01.001Z,25.62
2017-08-01T18:06:29.359Z,25.65
2017-08-01T18:08:57.713Z,25.62
2017-08-01T18:11:26.413Z,25.64
2017-08-01T18:13:54.779Z,25.54
2017-08-01T18:16:23.143Z,25.54
2017-08-01T18:18:51.876Z,25.64
2017-08-01T18:21:20.285Z,25.77
2017-08-01T18:23:49.831Z,25.65
2017-08-01T18:26:18.581Z,25.75
2017-08-01T18:28:46.987Z,25.80
2017-08-01T18:31:15.356Z,25.80
2017-08-01T18:33:44.021Z,25.74
2017-08-01T18:36:12.383Z,25.63
2017-08-01T18:38:40.731Z,25.73
2017-08-01T18:41:09.618Z,25.77
2017-08-01T18:43:37.989Z,25.79
2017-08-01T18:46:06.367Z,25.88
2017-08-01T18:48:35.355Z,25.88
2017-08-01T18:51:04.623Z,25.83
2017-08-01T18:53:33.089Z,25.78
2017-08-01T18:56:01.834Z,25.63
2017-08-01T18:58:31.055Z,25.61
2017-08-01T19:00:59.417Z,25.37
2017-08-01T19:03:28.393Z,25.35
2017-08-01T19:05:56.810Z,25.35
2017-08-01T19:08:25.154Z,25.24
2017-08-01T19:10:53.893Z,25.14
2017-08-01T19:13:22.248Z,25.16
2017-08-01T19:15:50.640Z,25.11
2017-08-01T19:18:19.541Z,25.05
2017-08-01T19:20:47.909Z,24.87
2017-08-01T19:23:16.268Z,24.86
2017-08-01T19:25:45.235Z,25.01
2017-08-01T19:30:48.534Z,24.78
2017-08-01T19:33:16.916Z,24.58
2017-08-01T19:35:45.282Z,24.53
2017-08-01T19:38:13.970Z,24.60
2017-08-01T19:40:42.366Z,24.44
2017-08-01T19:43:10.721Z,24.56
2017-08-01T19:45:39.410Z,24.44
2017-08-01T19:48:07.745Z,24.37
2017-08-01T19:50:36.098Z,24.18
2017-08-01T19:53:04.793Z,24.23
2017-08-01T19:55:33.177Z,24.22
2017-08-01T19:58:02.292Z,24.28
2017-08-01T20:00:30.980Z,24.31
2017-08-01T20:02:59.320Z,24.35
2017-08-01T20:05:27.688Z,24.19
2017-08-01T20:07:56.761Z,24.30
2017-08-01T20:10:25.245Z,24.40
2017-08-01T20:12:53.592Z,24.30
2017-08-01T20:15:22.400Z,24.43
2017-08-01T20:17:51.657Z,24.22
2017-08-01T20:20:20.014Z,24.30
2017-08-01T20:22:48.882Z,24.29
2017-08-01T20:25:17.213Z,24.25
2017-08-01T20:27:45.562Z,24.27
2017-08-01T20:30:15.131Z,24.05
2017-08-01T20:32:43.486Z,23.89
2017-08-01T20:35:11.846Z,23.94
2017-08-01T20:37:40.618Z,23.89
2017-08-01T20:40:09.002Z,23.86
2017-08-01T20:42:37.356Z,23.72
2017-08-01T20:45:06.021Z,23.52
2017-08-01T20:47:34.395Z,23.63
2017-08-01T20:50:02.785Z,23.72
2017-08-01T20:52:31.609Z,23.74
2017-08-01T20:54:59.972Z,23.62
2017-08-01T20:57:28.324Z,23.53
2017-08-01T20:59:57.098Z,23.52
2017-08-01T21:02:25.447Z,23.45
2017-08-01T21:04:53.852Z,23.45
2017-08-01T21:07:22.540Z,23.39
2017-08-01T21:09:50.901Z,23.55
2017-08-01T21:12:19.271Z,23.44
2017-08-01T21:14:47.971Z,23.49
2017-08-01T21:17:16.351Z,23.28
2017-08-01T21:19:45.458Z,23.31
2017-08-01T21:22:14.946Z,23.46
2017-08-01T21:24:43.296Z,23.19
2017-08-01T21:27:11.660Z,23.35
2017-08-01T21:29:40.535Z,23.25
2017-08-01T21:32:08.902Z,23.19
2017-08-01T21:34:37.250Z,23.18
2017-08-01T21:37:06.386Z,23.11
2017-08-01T21:39:34.754Z,23.20
2017-08-01T21:42:03.867Z,23.26
2017-08-01T21:44:32.652Z,23.33
2017-08-01T21:47:00.990Z,23.41
2017-08-01T21:49:29.344Z,23.37
2017-08-01T21:51:58.108Z,23.37
2017-08-01T21:54:26.443Z,23.21
2017-08-01T21:56:55.575Z,23.10
2017-08-01T21:59:24.253Z,23.05
2017-08-01T22:01:52.618Z,22.97
2017-08-01T22:04:20.987Z,22.84
2017-08-01T22:06:49.684Z,22.98
2017-08-01T22:09:18.033Z,22.98
2017-08-01T22:11:46.390Z,22.99
2017-08-01T22:14:15.008Z,22.94
2017-08-01T22:16:43.370Z,23.00
2017-08-01T22:19:11.701Z,22.96
2017-08-01T22:21:40.374Z,22.99
2017-08-01T22:24:09.482Z,22.98
2017-08-01T22:26:37.826Z,22.88
2017-08-01T22:29:06.496Z,22.92
2017-08-01T22:31:34.868Z,22.89
2017-08-01T22:34:03.227Z,22.95
2017-08-01T22:36:32.218Z,23.01
2017-08-01T22:39:00.569Z,23.00
2017-08-01T22:41:29.696Z,22.75
2017-08-01T22:43:58.510Z,22.78
2017-08-01T22:46:26.860Z,22.66
2017-08-01T22:48:55.238Z,22.57
2017-08-01T22:51:24.124Z,22.61
2017-08-01T22:53:52.471Z,22.67
2017-08-01T22:56:21.568Z,22.60
2017-08-01T22:58:51.199Z,22.54
2017-08-01T23:01:19.574Z,22.65
2017-08-01T23:03:47.926Z,22.63
2017-08-01T23:06:16.849Z,22.57
2017-08-01T23:08:45.192Z,22.52
2017-08-01T23:11:13.530Z,22.53
2017-08-01T23:13:42.262Z,22.49
2017-08-01T23:16:10.605Z,22.34
2017-08-01T23:18:38.969Z,22.22
2017-08-01T23:21:07.738Z,22.16
2017-08-01T23:23:36.087Z,22.21
2017-08-01T23:26:04.438Z,22.19
2017-08-01T23:28:33.164Z,22.24
2017-08-01T23:31:01.548Z,22.12
2017-08-01T23:33:29.892Z,22.24
2017-08-01T23:35:58.616Z,22.09
2017-08-01T23:38:26.969Z,22.14
2017-08-01T23:40:55.328Z,22.04
2017-08-01T23:43:24.278Z,21.86
2017-08-01T23:45:52.621Z,21.94
2017-08-01T23:48:20.966Z,21.63
2017-08-01T23:50:49.919Z,21.39
2017-08-01T23:53:18.278Z,21.36
2017-08-01T23:55:46.662Z,21.26
2017-08-01T23:58:15.295Z,21.27
